Time;durP1;ratioP1;P1;durP2;ratioP2;P2;SDS_P1;SDS_P2;PMS_P1;PMS_P2;Temp;Humidity;BMP_temperature;BMP_pressure;BME280_temperature;BME280_humidity;BME280_pressure;Samples;Min_cycle;Max_cycle;Signal;HPM_P1;HPM_P2
2022/07/05 00:00:09;;;;;;;5.10;3.90;;;18.20;23.70;;;18.07;55.84;101283.66;5049217;28;20475;-75
2022/07/05 00:02:41;;;;;;;5.53;3.90;;;18.10;23.10;;;18.11;56.10;101279.34;5047772;28;20483;-75
2022/07/05 00:05:10;;;;;;;4.30;3.90;;;18.10;23.80;;;18.36;55.79;101279.03;5050056;28;20481;-76
2022/07/05 00:07:39;;;;;;;6.63;3.70;;;18.20;24.10;;;18.39;55.16;101276.66;5046350;28;20447;-76
2022/07/05 00:10:09;;;;;;;7.13;3.50;;;18.30;23.70;;;18.86;53.87;101288.25;5046407;28;20447;-76
2022/07/05 00:12:39;;;;;;;5.63;3.60;;;18.60;21.80;;;18.88;54.06;101285.25;5047097;28;20547;-75
2022/07/05 00:15:10;;;;;;;3.20;2.87;;;18.60;21.80;;;18.54;54.90;101285.16;5051548;28;20693;-75
2022/07/05 00:17:38;;;;;;;6.97;3.70;;;18.50;21.80;;;18.42;54.51;101287.13;5050994;28;20505;-77
2022/07/05 00:20:09;;;;;;;5.10;3.40;;;18.50;21.10;;;18.24;54.94;101290.88;5050234;28;20523;-75
2022/07/05 00:22:38;;;;;;;7.90;3.40;;;18.40;20.90;;;18.20;55.45;101291.63;5049566;28;20460;-75
2022/07/05 00:25:07;;;;;;;4.77;3.10;;;18.20;22.40;;;18.02;55.38;101300.81;5046841;28;20413;-77
2022/07/05 00:27:36;;;;;;;3.13;2.83;;;18.10;23.00;;;18.31;55.66;101295.38;5045787;28;20526;-75
2022/07/05 00:30:09;;;;;;;4.60;3.30;;;18.10;25.00;;;18.53;54.40;101299.97;5048694;28;20900;-77
2022/07/05 00:32:38;;;;;;;4.67;2.87;;;18.40;22.80;;;18.76;54.09;101298.19;5038917;28;20435;-76
2022/07/05 00:35:09;;;;;;;3.23;2.60;;;18.60;22.60;;;18.74;54.38;101298.44;5048251;28;20868;-77
2022/07/05 00:37:38;;;;;;;4.80;3.53;;;18.60;22.80;;;18.29;55.05;101298.38;5044012;28;20416;-77
2022/07/05 00:40:09;;;;;;;3.97;3.00;;;18.40;22.00;;;18.43;55.43;101299.75;5046334;28;20418;-77
2022/07/05 00:42:38;;;;;;;11.03;3.77;;;18.40;25.10;;;18.37;55.64;101297.13;5030100;28;20461;-76
2022/07/05 00:45:10;;;;;;;6.60;3.80;;;18.30;25.00;;;18.31;56.32;101301.69;5045423;22;20984;-73
2022/07/05 00:47:39;;;;;;;3.53;3.07;;;18.30;27.20;;;18.07;57.17;101305.56;5071532;28;20436;-75
2022/07/05 00:50:09;;;;;;;4.10;3.50;;;18.10;28.80;;;17.80;58.61;101317.06;5070635;28;20420;-74
2022/07/05 00:52:38;;;;;;;8.40;3.60;;;17.90;34.40;;;17.68;60.23;101315.38;5068514;28;20413;-73
2022/07/05 00:55:09;;;;;;;4.77;3.00;;;17.70;46.40;;;17.60;60.72;101316.56;5074975;28;20421;-73
2022/07/05 00:57:38;;;;;;;4.13;3.67;;;17.60;52.70;;;17.71;60.41;101323.13;5087993;22;20507;-69
2022/07/05 01:00:10;;;;;;;5.73;3.73;;;17.60;56.60;;;17.95;59.41;101316.56;5027457;28;20493;-70
2022/07/05 01:02:39;;;;;;;6.50;4.50;;;17.70;55.50;;;18.26;58.41;101318.00;5048131;28;20471;-70
2022/07/05 01:05:09;;;;;;;11.03;5.83;;;18.00;52.30;;;18.38;58.54;101318.81;5051757;28;20416;-70
2022/07/05 01:07:38;;;;;;;8.63;5.67;;;18.20;52.50;;;18.07;59.27;101324.72;5033767;28;20470;-70
2022/07/05 01:10:08;;;;;;;10.50;7.63;;;18.00;52.60;;;17.92;59.62;101322.50;5046405;28;20495;-70
2022/07/05 01:12:40;;;;;;;7.80;6.10;;;17.90;54.00;;;18.16;58.91;101326.03;5051379;28;20582;-70
2022/07/05 01:15:11;;;;;;;4.33;3.33;;;18.00;54.60;;;18.08;58.78;101329.13;5049614;28;20938;-70
2022/07/05 01:17:40;;;;;;;6.10;3.50;;;18.00;52.50;;;18.63;57.58;101322.09;5033635;28;20451;-70
2022/07/05 01:20:10;;;;;;;4.00;3.60;;;18.10;53.80;;;18.34;58.08;101323.13;5031360;28;20418;-70
2022/07/05 01:22:54;;;;;;;4.70;3.20;;;18.20;50.90;;;18.37;58.24;101319.91;5048176;28;20498;-70
2022/07/05 01:25:26;;;;;;;4.40;3.80;;;18.20;50.80;;;18.22;58.18;101330.53;5038445;28;21054;-70
2022/07/05 01:27:57;;;;;;;4.00;3.10;;;18.20;49.70;;;17.67;58.63;101327.41;5046697;28;20967;-70
2022/07/05 01:30:27;;;;;;;6.40;3.07;;;17.80;48.10;;;17.32;59.07;101324.63;5048496;28;20498;-70
2022/07/05 01:32:56;;;;;;;6.27;3.97;;;17.50;48.70;;;18.08;58.65;101321.75;5050382;28;20493;-70
2022/07/05 01:35:25;;;;;;;3.63;2.90;;;17.70;55.80;;;17.88;57.29;101323.22;5027417;28;20453;-70
2022/07/05 01:37:56;;;;;;;4.30;2.77;;;17.70;46.30;;;17.52;57.35;101330.59;5048401;28;20440;-69
2022/07/05 01:40:25;;;;;;;5.33;2.60;;;17.60;42.50;;;17.36;58.35;101323.91;5033331;28;20499;-70
2022/07/05 01:42:54;;;;;;;3.77;3.07;;;17.40;46.90;;;17.69;58.08;101323.34;5035810;28;20449;-70
2022/07/05 01:48:12;;;;;;;3.60;2.30;;;17.30;44.30;;;17.25;58.72;101318.41;5051562;28;20467;-70
2022/07/05 01:50:46;;;;;;;3.33;2.53;;;17.20;50.10;;;17.00;58.66;101315.03;5050436;28;20431;-70
2022/07/05 01:53:22;;;;;;;3.70;2.80;;;17.10;48.10;;;16.81;59.38;101319.75;5034863;28;20467;-70
2022/07/05 01:55:52;;;;;;;4.70;2.40;;;16.90;50.20;;;16.71;59.03;101317.56;5047174;28;20430;-70
2022/07/05 01:58:22;;;;;;;5.50;3.20;;;16.70;50.80;;;16.67;59.22;101316.38;5034119;28;20475;-70
2022/07/05 02:00:54;;;;;;;3.50;2.60;;;16.60;52.60;;;16.65;58.97;101313.06;5050063;28;20466;-70
2022/07/05 02:03:24;;;;;;;2.50;1.97;;;16.60;52.20;;;16.47;59.66;101315.78;5049091;28;20434;-70
2022/07/05 02:06:13;;;;;;;5.10;2.10;;;16.50;53.10;;;16.40;59.71;101320.50;5052728;28;20401;-70
2022/07/05 02:08:43;;;;;;;2.93;2.63;;;16.40;54.60;;;16.33;60.11;101317.03;5048689;28;20544;-70
2022/07/05 02:11:12;;;;;;;2.80;2.40;;;16.30;56.50;;;16.32;60.89;101312.63;5041006;28;20430;-70
2022/07/05 02:13:41;;;;;;;2.70;1.77;;;16.30;61.10;;;16.26;60.34;101313.56;5026882;28;20974;-70
2022/07/05 02:16:11;;;;;;;3.23;2.00;;;16.20;58.80;;;16.20;60.33;101314.47;5039608;28;20413;-70
2022/07/05 02:18:40;;;;;;;2.80;2.37;;;16.20;59.80;;;16.15;60.58;101317.03;5045521;28;20433;-71
2022/07/05 02:21:09;;;;;;;2.60;2.17;;;16.10;61.40;;;16.12;60.68;101312.84;5036670;28;20504;-70
2022/07/05 02:23:38;;;;;;;3.40;2.10;;;16.00;63.10;;;16.07;61.03;101323.66;5027140;28;20406;-70
2022/07/05 02:26:11;;;;;;;3.30;2.30;;;16.00;65.50;;;15.97;61.42;101316.00;5047365;28;21022;-70
2022/07/05 02:28:43;;;;;;;2.67;2.40;;;15.90;68.70;;;15.90;61.55;101320.69;5032613;28;21041;-70
2022/07/05 02:31:15;;;;;;;2.17;1.97;;;15.90;71.30;;;15.88;61.89;101322.78;5031565;28;20538;-70
2022/07/05 02:33:45;;;;;;;3.80;2.33;;;15.80;74.40;;;15.83;62.22;101319.09;5025247;28;20546;-70
2022/07/05 02:36:15;;;;;;;3.13;2.03;;;15.70;76.30;;;16.04;62.26;101326.81;5045978;28;20451;-70
2022/07/05 02:38:45;;;;;;;2.10;1.90;;;15.90;82.60;;;15.92;62.07;101329.50;5033521;28;20568;-70
2022/07/05 02:41:16;;;;;;;3.00;2.00;;;15.90;78.20;;;15.81;62.64;101332.13;5033643;28;20444;-70
2022/07/05 02:43:48;;;;;;;2.67;2.27;;;15.80;81.80;;;15.76;62.93;101331.97;5033249;28;20991;-70
2022/07/05 02:46:20;;;;;;;1.57;1.47;;;15.70;84.50;;;15.61;63.70;101326.88;5033004;28;20430;-70
2022/07/05 02:48:49;;;;;;;2.40;2.20;;;15.60;89.20;;;15.65;63.81;101326.19;5054779;28;20473;-70
2022/07/05 02:51:22;;;;;;;3.70;2.77;;;15.60;91.60;;;15.92;63.76;101328.66;5053287;28;20451;-70
2022/07/05 02:53:55;;;;;;;2.40;2.20;;;15.70;93.50;;;15.92;63.43;101324.03;5052921;28;20441;-70
2022/07/05 02:56:26;;;;;;;4.20;2.20;;;15.80;92.40;;;15.79;64.08;101329.63;5025535;28;20462;-70
2022/07/05 02:58:55;;;;;;;4.33;2.30;;;15.70;93.90;;;15.74;64.42;101331.34;5049064;28;20464;-70
2022/07/05 03:01:26;;;;;;;2.93;2.37;;;15.70;94.80;;;15.71;64.78;101340.84;5049903;28;20460;-70
2022/07/05 03:04:01;;;;;;;2.37;2.17;;;15.60;96.00;;;15.65;65.17;101339.84;5036708;28;20500;-70
2022/07/05 03:06:32;;;;;;;4.53;2.83;;;15.60;97.70;;;15.81;65.09;101338.41;5036751;28;20459;-70
2022/07/05 03:09:01;;;;;;;4.17;2.73;;;15.60;98.80;;;15.72;65.49;101334.31;5045041;28;20501;-70
2022/07/05 03:11:32;;;;;;;4.30;3.10;;;15.60;98.90;;;15.62;66.15;101344.91;5035313;28;20543;-71
2022/07/05 03:14:01;;;;;;;2.67;2.17;;;15.50;99.90;;;15.62;66.28;101344.91;5035640;28;20486;-70
2022/07/05 03:16:30;;;;;;;4.87;2.63;;;15.50;99.90;;;15.62;66.43;101345.75;5036611;28;20938;-70
2022/07/05 03:19:00;;;;;;;2.30;2.10;;;15.50;99.90;;;15.71;66.59;101338.09;5036817;28;20501;-71
2022/07/05 03:21:29;;;;;;;2.30;2.10;;;15.60;99.90;;;15.71;66.60;101353.63;5049878;28;20404;-70
2022/07/05 03:23:58;;;;;;;11.60;2.50;;;15.60;99.90;;;15.78;66.45;101355.22;5027576;28;20861;-70
2022/07/05 03:26:27;;;;;;;3.20;2.20;;;15.60;99.90;;;16.26;64.94;101346.31;5044417;28;20473;-70
2022/07/05 03:28:57;;;;;;;3.57;2.30;;;15.90;99.90;;;15.94;66.07;101349.19;5028603;28;20495;-70
2022/07/05 03:31:26;;;;;;;2.87;2.50;;;15.80;99.90;;;16.02;65.91;101340.69;5030574;28;20479;-70
2022/07/05 03:33:56;;;;;;;2.73;2.53;;;15.80;99.90;;;16.25;65.27;101348.22;5036216;28;20447;-70
2022/07/05 03:36:25;;;;;;;2.60;2.40;;;16.00;99.90;;;16.39;64.50;101346.16;5054020;28;20466;-70
2022/07/05 03:38:55;;;;;;;2.30;2.10;;;16.10;98.40;;;16.67;63.93;101356.53;5047704;28;20478;-70
2022/07/05 03:41:24;;;;;;;3.77;2.73;;;16.30;98.40;;;16.80;63.41;101354.44;5051499;28;20439;-70
2022/07/05 03:43:53;;;;;;;4.80;2.70;;;16.40;96.30;;;17.14;62.21;101349.31;5036337;28;20756;-71
2022/07/05 03:46:24;;;;;;;3.07;2.77;;;16.60;95.00;;;18.28;59.01;101362.44;5036688;28;20443;-71
2022/07/05 03:48:53;;;;;;;4.83;3.40;;;17.20;92.00;;;19.43;55.68;101354.78;5053343;28;20470;-71
2022/07/05 03:51:22;;;;;;;3.40;3.10;;;17.80;79.00;;;20.51;53.01;101361.59;5021104;28;20448;-71
2022/07/05 03:53:52;;;;;;;3.87;2.53;;;18.50;62.80;;;21.09;50.74;101363.63;5052625;28;20418;-71
2022/07/05 03:56:23;;;;;;;3.77;2.93;;;19.10;47.00;;;21.47;49.70;101361.78;5035410;28;20454;-71
2022/07/05 03:58:55;;;;;;;4.07;2.50;;;19.60;37.80;;;21.90;48.66;101367.03;5036556;28;20466;-71
2022/07/05 04:01:25;;;;;;;3.80;3.13;;;20.00;30.50;;;22.18;47.80;101359.50;5037801;28;20470;-70
2022/07/05 04:03:55;;;;;;;3.27;2.53;;;20.30;27.20;;;22.76;46.02;101367.50;5044190;28;21133;-71
2022/07/05 04:06:28;;;;;;;3.43;3.10;;;20.70;22.70;;;23.20;45.33;101372.53;5046364;28;20542;-71
2022/07/05 04:08:57;;;;;;;3.80;2.57;;;20.90;21.20;;;23.64;44.63;101375.63;5049125;28;21041;-71
2022/07/05 04:11:26;;;;;;;4.53;2.40;;;21.30;18.50;;;23.95;43.58;101373.66;5030576;28;20489;-71
2022/07/05 04:13:56;;;;;;;2.00;1.73;;;21.70;15.40;;;23.92;43.56;101368.66;5030796;28;20422;-70
2022/07/05 04:16:27;;;;;;;3.00;2.70;;;21.80;13.80;;;24.35;42.84;101378.28;5048282;28;20773;-71
2022/07/05 04:18:56;;;;;;;3.17;2.43;;;22.10;12.70;;;24.71;42.24;101370.63;5047001;28;20446;-71
2022/07/05 04:21:27;;;;;;;2.90;1.63;;;22.20;11.30;;;24.59;42.11;101373.75;5032346;28;20849;-72
2022/07/05 04:23:57;;;;;;;2.40;2.20;;;22.30;10.20;;;24.61;41.98;101377.88;5032753;28;20460;-70
2022/07/05 04:26:26;;;;;;;2.23;1.77;;;22.40;9.60;;;24.04;43.32;101388.56;5031908;28;20454;-71
2022/07/05 04:28:56;;;;;;;2.43;2.23;;;22.60;9.10;;;24.67;42.27;101387.81;5050647;28;20478;-71
2022/07/05 04:31:31;;;;;;;3.13;2.03;;;22.40;9.20;;;25.11;41.11;101392.59;5031638;28;20441;-70
2022/07/05 04:34:00;;;;;;;3.33;1.83;;;22.50;8.40;;;23.70;43.06;101397.47;5030490;28;20948;-71
2022/07/05 04:36:33;;;;;;;3.47;2.27;;;22.30;7.00;;;24.72;41.91;101392.50;5031949;28;20937;-70
2022/07/05 04:39:03;;;;;;;2.60;1.70;;;22.40;7.80;;;24.88;41.56;101393.28;5032352;28;20503;-70
2022/07/05 04:41:34;;;;;;;2.90;1.77;;;22.50;6.80;;;25.39;40.75;101400.13;5032524;28;20793;-71
2022/07/05 04:44:06;;;;;;;5.10;1.77;;;22.70;6.50;;;25.84;39.88;101400.91;5048930;28;20441;-70
2022/07/05 04:46:36;;;;;;;3.47;1.97;;;23.20;5.90;;;26.45;38.83;101394.69;5048412;28;20613;-70
2022/07/05 04:49:06;;;;;;;5.30;2.20;;;23.40;4.70;;;25.65;39.57;101405.50;5049278;28;20855;-71
2022/07/05 04:51:35;;;;;;;3.60;2.10;;;23.80;2.90;;;25.48;40.03;101409.47;5047795;28;20451;-70
2022/07/05 04:54:05;;;;;;;3.30;1.93;;;23.80;2.90;;;25.88;40.00;101418.59;5031843;28;20530;-70
2022/07/05 04:56:34;;;;;;;2.27;1.83;;;23.40;3.50;;;25.86;39.53;101418.03;5029766;28;20448;-70
2022/07/05 04:59:03;;;;;;;2.80;2.10;;;23.60;2.90;;;26.09;39.54;101420.06;5043203;28;20436;-70
2022/07/05 05:01:32;;;;;;;3.23;2.20;;;23.80;3.00;;;26.62;38.26;101417.25;5051046;28;20259;-70
2022/07/05 05:04:03;;;;;;;2.50;1.90;;;24.00;2.10;;;26.56;38.52;101429.53;5049710;28;21017;-69
2022/07/05 05:06:32;;;;;;;2.70;2.00;;;24.10;1.50;;;26.89;37.90;101427.75;5050830;28;20474;-70
2022/07/05 05:09:01;;;;;;;1.80;1.70;;;24.40;1.00;;;27.25;37.15;101432.50;5051873;28;20474;-70
2022/07/05 05:11:30;;;;;;;3.87;2.00;;;24.10;1.50;;;27.38;37.14;101435.66;5027733;28;20835;-70
2022/07/05 05:13:59;;;;;;;2.20;1.63;;;24.60;1.00;;;25.74;39.42;101440.63;5054770;28;20435;-70
2022/07/05 05:16:28;;;;;;;3.07;2.17;;;24.20;1.00;;;24.80;41.11;101433.41;5049209;28;20446;-71
2022/07/05 05:18:57;;;;;;;2.17;1.87;;;23.60;1.00;;;24.28;42.40;101444.13;5048877;28;20467;-70
2022/07/05 05:21:28;;;;;;;2.20;1.70;;;23.10;1.80;;;24.92;41.42;101444.19;5051021;28;20943;-71
2022/07/05 05:23:57;;;;;;;3.93;2.60;;;23.10;2.10;;;24.38;42.00;101447.69;5046491;28;20474;-70
2022/07/05 05:26:26;;;;;;;3.40;2.37;;;23.10;1.80;;;23.40;43.19;101439.69;5049789;28;20450;-71
2022/07/05 05:28:55;;;;;;;3.20;1.70;;;22.50;1.20;;;23.65;42.90;101447.19;5048986;28;20996;-69
2022/07/05 05:31:25;;;;;;;2.30;1.90;;;22.30;2.10;;;25.49;39.12;101447.16;5036723;28;20950;-70
2022/07/05 05:33:54;;;;;;;5.47;2.00;;;22.90;1.20;;;25.97;38.12;101444.56;5049382;28;20469;-69
2022/07/05 05:36:23;;;;;;;3.63;1.80;;;23.40;1.00;;;25.97;37.21;101444.56;5052809;28;20451;-70
2022/07/05 05:38:53;;;;;;;2.10;1.43;;;23.70;1.00;;;24.16;40.02;101452.66;5053273;28;20536;-70
2022/07/05 05:41:22;;;;;;;2.43;2.10;;;23.40;1.00;;;22.25;43.78;101445.56;5048535;28;20489;-69
2022/07/05 05:43:51;;;;;;;2.87;1.70;;;22.40;1.00;;;20.79;46.54;101451.31;5052205;28;20466;-70
2022/07/05 05:46:20;;;;;;;2.67;1.50;;;21.20;1.10;;;20.29;48.04;101457.75;5052198;28;20794;-70
2022/07/05 05:48:49;;;;;;;3.77;1.97;;;20.50;3.30;;;20.37;48.23;101457.38;5046741;28;20534;-69
2022/07/05 05:51:18;;;;;;;2.20;1.80;;;20.20;4.50;;;20.37;48.19;101457.38;5049721;28;20866;-70
2022/07/05 05:53:47;;;;;;;2.13;1.30;;;20.00;5.30;;;20.55;47.84;101455.41;5048240;28;20514;-69
2022/07/05 05:56:18;;;;;;;2.57;1.73;;;20.10;6.10;;;20.25;47.58;101462.09;5042850;28;20506;-69
2022/07/05 05:58:48;;;;;;;6.23;1.70;;;20.00;5.30;;;20.21;48.10;101460.94;5040983;28;20479;-69
2022/07/05 06:01:17;;;;;;;1.50;1.20;;;20.00;5.70;;;20.29;47.09;101456.91;5038140;28;20494;-69
2022/07/05 06:03:46;;;;;;;3.40;2.03;;;20.00;5.20;;;20.45;46.71;101466.25;5044862;28;20868;-69
2022/07/05 06:06:15;;;;;;;2.53;1.60;;;20.00;4.70;;;20.06;46.62;101455.22;5047238;28;20450;-69
2022/07/05 06:08:44;;;;;;;2.90;1.73;;;19.90;4.00;;;20.06;47.64;101466.22;5044115;28;20463;-69
2022/07/05 06:11:13;;;;;;;1.93;1.40;;;19.80;5.70;;;20.13;48.07;101472.38;5048774;28;20466;-70
2022/07/05 06:13:43;;;;;;;4.47;1.60;;;19.80;5.90;;;20.02;47.90;101472.47;5048106;28;20410;-70
2022/07/05 06:16:12;;;;;;;4.50;1.40;;;19.80;5.60;;;20.28;47.68;101477.28;5047501;28;20489;-70
2022/07/05 06:18:42;;;;;;;2.80;1.70;;;20.00;5.70;;;20.32;47.40;101483.94;5027645;28;20895;-70
2022/07/05 06:21:11;;;;;;;4.23;1.60;;;20.00;5.30;;;20.60;47.43;101472.81;5041530;28;20419;-69
2022/07/05 06:23:40;;;;;;;2.23;1.57;;;20.20;6.20;;;20.89;46.07;101478.94;5039180;28;20506;-70
2022/07/05 06:26:09;;;;;;;3.00;1.50;;;20.50;4.90;;;20.79;46.10;101478.81;5043657;28;20428;-70
2022/07/05 06:28:38;;;;;;;9.43;1.80;;;20.50;4.20;;;20.71;46.80;101482.03;5042196;28;20463;-69
2022/07/05 06:31:09;;;;;;;3.07;1.60;;;20.50;4.20;;;20.58;47.96;101493.38;5044185;28;20539;-70
2022/07/05 06:33:38;;;;;;;1.80;1.30;;;20.30;5.50;;;20.81;46.69;101476.66;5043027;28;20949;-70
2022/07/05 06:36:07;;;;;;;1.90;1.30;;;20.40;4.90;;;20.67;46.90;101497.38;5044686;28;20410;-69
2022/07/05 06:38:46;;;;;;;2.97;1.40;;;20.50;4.30;;;20.74;46.87;101487.84;5050631;28;20467;-69
2022/07/05 06:41:16;;;;;;;2.00;1.57;;;20.50;4.60;;;20.78;46.88;101489.00;5053131;28;20444;-70
2022/07/05 06:43:45;;;;;;;2.70;1.93;;;20.60;4.60;;;20.75;46.63;101499.69;5057848;28;20459;-69
2022/07/05 06:46:26;;;;;;;2.30;1.67;;;20.50;4.20;;;20.82;46.64;101495.63;5058884;28;20510;-70
2022/07/05 06:48:54;;;;;;;5.10;1.83;;;20.60;4.40;;;21.05;47.15;101490.97;5059635;28;20495;-70
2022/07/05 06:51:23;;;;;;;1.87;1.30;;;20.70;4.90;;;21.00;46.25;101491.75;5064400;28;20463;-70
2022/07/05 06:53:56;;;;;;;2.13;1.57;;;20.70;3.90;;;21.29;45.77;101486.88;5063761;28;20481;-69
2022/07/05 06:56:34;;;;;;;2.13;1.80;;;20.90;4.10;;;21.17;45.63;101498.03;5061770;28;20441;-69
2022/07/05 06:59:23;;;;;;;2.40;1.40;;;21.00;3.20;;;21.09;45.87;101498.47;5088775;22;20501;-73
2022/07/05 07:02:13;;;;;;;12.70;8.23;;;20.90;3.30;;;21.05;46.42;101500.06;5064513;28;20448;-73
2022/07/05 07:04:51;;;;;;;3.10;1.37;;;20.90;3.70;;;21.16;46.04;101501.03;5067048;28;20473;-72
2022/07/05 07:10:24;;;;;;;2.47;1.60;;;21.10;3.70;;;21.98;45.19;101496.09;5044629;28;20912;-73
2022/07/05 07:12:57;;;;;;;2.80;2.00;;;21.50;3.60;;;21.83;44.77;101497.88;5032258;28;20425;-73
2022/07/05 07:15:27;;;;;;;1.67;1.20;;;21.50;2.30;;;21.87;44.42;101501.75;5046665;28;21099;-72
2022/07/05 07:17:58;;;;;;;2.60;1.60;;;21.60;2.30;;;21.28;45.54;101504.47;5049034;28;20911;-72
2022/07/05 07:20:27;;;;;;;2.90;1.87;;;21.30;2.10;;;21.94;44.77;101503.22;5045874;28;20410;-73
2022/07/05 07:22:57;;;;;;;2.20;1.80;;;21.60;2.50;;;22.04;44.54;101506.06;5048056;28;20790;-73
2022/07/05 07:25:26;;;;;;;4.87;1.60;;;21.70;2.10;;;21.90;44.00;101501.22;5038543;28;20838;-72
2022/07/05 07:27:56;;;;;;;5.83;2.00;;;21.70;1.10;;;22.57;43.77;101498.69;5039206;28;20461;-72
2022/07/05 07:30:28;;;;;;;4.50;1.97;;;22.10;1.80;;;23.03;42.62;101504.47;5037210;28;20414;-74
2022/07/05 07:32:59;;;;;;;3.63;1.67;;;22.50;1.00;;;22.60;43.27;101498.19;5037283;28;20410;-74
2022/07/05 07:35:28;;;;;;;2.30;1.97;;;22.30;1.00;;;22.59;42.61;101495.69;5045951;28;20410;-73
2022/07/05 07:37:57;;;;;;;2.20;1.70;;;22.30;1.00;;;22.94;42.42;101495.91;5049807;28;20414;-73
2022/07/05 07:40:26;;;;;;;3.03;1.90;;;22.60;1.00;;;23.17;42.33;101494.59;5052957;28;20413;-75
2022/07/05 07:42:55;;;;;;;6.00;1.43;;;22.70;1.00;;;23.26;41.47;101491.03;5048968;28;20443;-73
2022/07/05 07:45:26;;;;;;;7.10;1.90;;;22.80;1.00;;;22.98;42.51;101490.66;5050227;28;20448;-72
2022/07/05 07:47:55;;;;;;;4.20;2.40;;;22.70;1.00;;;23.07;42.27;101491.78;5044549;28;20826;-72
2022/07/05 07:50:25;;;;;;;4.30;2.70;;;22.80;1.00;;;22.86;41.32;101491.72;5048524;28;20415;-73
2022/07/05 07:52:54;;;;;;;5.63;2.23;;;22.70;1.00;;;22.79;41.16;101493.91;5050389;28;20454;-72
2022/07/05 07:55:23;;;;;;;4.03;1.47;;;22.60;1.00;;;22.82;41.54;101493.34;5043164;28;20435;-73
2022/07/05 07:57:53;;;;;;;3.33;2.40;;;22.60;1.00;;;23.09;40.85;101492.38;5042155;28;20850;-72
2022/07/05 08:00:22;;;;;;;2.53;1.33;;;22.80;1.00;;;22.89;40.77;101488.44;5049498;28;20465;-73
2022/07/05 08:02:51;;;;;;;1.53;1.13;;;22.70;1.00;;;22.17;42.05;101492.94;5053067;28;21210;-74
2022/07/05 08:05:20;;;;;;;4.90;1.80;;;22.30;1.00;;;22.13;43.03;101497.28;5044100;28;21217;-72
2022/07/05 08:07:51;;;;;;;3.67;2.70;;;22.10;1.00;;;22.82;42.59;101487.00;5050994;28;20443;-75
2022/07/05 08:10:20;;;;;;;3.97;1.83;;;22.40;1.00;;;22.84;42.00;101491.16;5057330;28;20436;-76
2022/07/05 08:12:49;;;;;;;1.80;1.67;;;22.50;1.00;;;22.79;41.69;101490.31;5054642;28;20443;-74
2022/07/05 08:15:18;;;;;;;2.40;1.13;;;22.60;1.00;;;22.74;41.89;101493.88;5050200;28;20862;-75
2022/07/05 08:23:18;;;;;;;1.50;1.10;;;22.90;1.00;;;23.39;40.79;101492.41;5047689;28;20684;-74
2022/07/05 08:25:48;;;;;;;5.53;1.70;;;23.00;1.00;;;22.99;41.65;101492.31;5048156;28;20482;-75
2022/07/05 08:28:17;;;;;;;2.30;1.80;;;22.80;1.00;;;23.14;41.22;101486.84;5049679;28;20475;-72
2022/07/05 08:30:47;;;;;;;1.53;1.40;;;22.90;1.00;;;22.99;41.68;101489.56;5047089;28;20451;-73
2022/07/05 08:33:16;;;;;;;2.20;1.40;;;22.90;1.00;;;23.49;40.90;101492.47;5052025;28;20439;-73
2022/07/05 08:35:45;;;;;;;3.57;2.27;;;23.10;1.00;;;22.99;41.06;101493.16;5040878;28;20440;-73
2022/07/05 08:38:15;;;;;;;2.27;1.83;;;22.90;1.00;;;23.14;41.41;101484.91;5048653;28;20469;-74
2022/07/05 08:40:53;;;;;;;3.13;1.90;;;22.90;1.00;;;23.48;41.07;101481.72;5049091;28;20446;-74
2022/07/05 08:43:24;;;;;;;2.50;1.83;;;23.00;1.00;;;23.31;41.27;101492.97;5052343;28;20837;-73
2022/07/05 08:45:56;;;;;;;2.37;1.53;;;23.20;1.00;;;22.84;42.13;101484.81;5043537;28;20449;-71
2022/07/05 08:48:28;;;;;;;1.70;1.40;;;22.80;1.00;;;22.07;43.79;101490.94;5036037;28;20442;-74
2022/07/05 08:51:00;;;;;;;3.03;1.60;;;22.20;1.00;;;22.40;43.11;101490.63;5031988;28;20529;-73
2022/07/05 08:53:30;;;;;;;2.57;1.83;;;22.20;1.00;;;22.63;42.85;101486.59;5038066;28;20410;-73
2022/07/05 08:56:03;;;;;;;2.87;2.43;;;22.40;1.00;;;23.42;41.90;101488.31;5041394;28;20439;-73
2022/07/05 08:58:32;;;;;;;2.30;2.00;;;22.80;1.00;;;23.69;41.03;101491.69;5047452;28;20452;-72
2022/07/05 09:01:02;;;;;;;3.77;2.13;;;23.20;1.00;;;22.89;42.00;101480.16;5051770;28;20704;-73
2022/07/05 09:03:35;;;;;;;2.60;2.13;;;22.90;1.00;;;22.84;41.79;101482.88;5052055;28;20420;-73
2022/07/05 09:06:08;;;;;;;2.37;1.40;;;22.80;1.00;;;22.51;42.71;101481.28;5042175;28;20453;-73
2022/07/05 09:08:40;;;;;;;4.83;2.27;;;22.60;1.00;;;22.99;42.41;101481.28;5053929;28;20457;-73
2022/07/05 09:11:15;;;;;;;2.93;2.13;;;22.80;1.00;;;23.09;42.28;101484.88;5051983;28;20425;-72
2022/07/05 09:13:50;;;;;;;3.23;1.37;;;22.80;1.00;;;23.13;42.33;101479.66;5057787;28;20438;-73
2022/07/05 09:16:40;;;;;;;4.93;2.00;;;22.90;1.00;;;23.02;42.08;101475.22;5051694;28;20487;-73
2022/07/05 09:19:10;;;;;;;3.23;1.80;;;22.80;1.00;;;23.19;41.84;101475.81;5051969;28;20934;-72
2022/07/05 09:21:41;;;;;;;4.60;2.33;;;23.00;1.00;;;23.53;41.69;101477.00;5047740;28;20490;-73
2022/07/05 09:24:13;;;;;;;2.57;1.80;;;23.20;1.00;;;24.11;40.38;101474.78;5051984;28;20418;-73
2022/07/05 09:26:47;;;;;;;6.10;1.77;;;23.60;1.00;;;24.17;40.37;101476.50;5048761;28;20446;-73
2022/07/05 09:29:20;;;;;;;3.00;1.50;;;23.80;1.00;;;24.15;40.10;101478.69;5046025;28;20478;-72
2022/07/05 09:32:09;;;;;;;2.60;2.03;;;23.90;1.00;;;24.10;40.29;101475.94;5050597;28;20442;-75
2022/07/05 09:34:38;;;;;;;2.47;1.40;;;23.90;1.00;;;23.82;40.97;101475.38;5026552;28;20462;-74
2022/07/05 09:37:07;;;;;;;3.10;1.63;;;23.80;1.00;;;23.75;41.23;101465.72;5039405;28;20432;-74
2022/07/05 09:39:39;;;;;;;2.90;1.70;;;23.70;1.00;;;23.80;40.99;101466.53;5048441;28;20433;-74
2022/07/05 09:42:20;;;;;;;1.77;1.30;;;23.70;1.00;;;24.18;40.71;101464.31;5045792;28;20439;-72
2022/07/05 09:44:51;;;;;;;4.23;1.77;;;23.90;1.00;;;24.72;40.21;101475.53;5046674;28;20447;-71
2022/07/05 09:47:23;;;;;;;2.23;1.60;;;24.30;1.00;;;23.90;41.02;101467.66;5043455;28;20490;-72
2022/07/05 09:49:54;;;;;;;2.63;1.60;;;23.90;1.00;;;23.94;41.25;101465.97;5045602;28;20459;-73
2022/07/05 09:52:39;;;;;;;2.03;1.60;;;23.90;1.00;;;23.85;41.17;101459.34;5045567;28;20435;-73
2022/07/05 09:55:11;;;;;;;3.50;1.87;;;23.70;1.00;;;24.06;41.02;101469.31;5051368;28;20413;-73
2022/07/05 09:57:43;;;;;;;5.13;2.10;;;23.80;1.00;;;24.37;40.77;101472.84;5049608;28;20439;-74
2022/07/05 10:00:15;;;;;;;8.93;1.60;;;24.00;1.00;;;23.88;40.76;101467.91;5049784;28;20524;-72
2022/07/05 10:02:47;;;;;;;2.27;1.70;;;23.70;1.00;;;23.51;41.62;101473.72;5047176;28;20420;-75
2022/07/05 10:05:18;;;;;;;2.83;2.10;;;23.50;1.00;;;24.12;40.93;101463.47;5057868;28;20449;-74
2022/07/05 10:07:49;;;;;;;3.50;2.23;;;23.80;1.00;;;24.54;40.17;101465.09;5057459;28;20551;-74
2022/07/05 10:10:20;;;;;;;1.87;1.47;;;24.00;1.00;;;24.89;39.27;101461.34;5060175;28;20811;-73
2022/07/05 10:12:53;;;;;;;2.87;2.30;;;24.30;1.00;;;24.97;38.72;101458.03;5050659;28;20420;-74
2022/07/05 10:15:26;;;;;;;2.23;1.90;;;24.60;1.00;;;24.79;39.30;101472.44;5051911;28;20447;-73
2022/07/05 10:18:04;;;;;;;2.80;2.00;;;24.40;1.00;;;24.29;40.04;101465.97;5053042;28;20473;-73
2022/07/05 10:20:41;;;;;;;4.93;2.00;;;24.10;1.00;;;24.46;40.34;101463.72;5063636;28;20430;-74
2022/07/05 10:23:11;;;;;;;3.30;2.17;;;24.20;1.00;;;24.86;39.73;101465.50;5060041;28;20473;-74
2022/07/05 10:25:43;;;;;;;2.80;2.20;;;24.30;1.00;;;24.87;39.77;101469.97;5056784;28;20429;-75
2022/07/05 10:28:13;;;;;;;6.30;2.20;;;24.50;1.00;;;24.59;40.12;101468.63;5066180;28;20502;-76
2022/07/05 10:30:45;;;;;;;7.57;2.17;;;24.40;1.00;;;24.73;39.62;101468.06;5050587;28;20538;-73
2022/07/05 10:33:16;;;;;;;3.03;2.70;;;24.40;1.00;;;24.25;39.42;101467.66;5046260;28;20442;-73
2022/07/05 10:35:45;;;;;;;2.57;2.30;;;24.10;1.00;;;24.04;39.81;101474.28;5048284;28;20463;-73
2022/07/05 10:38:16;;;;;;;4.17;2.43;;;23.90;1.00;;;24.03;39.60;101470.66;5051935;28;20513;-74
2022/07/05 10:40:53;;;;;;;2.37;2.03;;;23.80;1.00;;;24.13;39.99;101469.84;5060374;28;20783;-71